Latest Weather Observations for Camden

IDN60801

Issued at 6:02 am EST Saturday 30 May 2015 (issued every 30 minutes, with the page automatically refreshed every 10 minutes)

About weather observations | Map of weather stations | Latest weather observations for NSW | Other Formats
Station Details ID: 068192 Name: CAMDEN AIRPORT AWS Lat: -34.04 Lon: 150.69 Height: 73.9 m
Data from the previous 72 hours. | See also: Recent months at Camden
Date/Time
EST
Temp
°C
App
Temp
°C
Dew
Point
Rel
Hum
%
Delta-T
°C
Wind Press
QNH
hPa
Press
MSL
hPa
Rain
since 9 am
mm
Dir
 
Spd
km/h
Gust
km/h
Spd
kts
Gust
kts
30/06:00am 5.2 4.1 5.1 99 0.0 CALM 0 0 0 0 1021.9 1021.9 -
30/05:39am 5.7 4.7 5.6 99 0.0 CALM 0 0 0 0 1022.0 1022.0 0.0
30/05:37am 5.8 4.8 5.7 99 0.0 CALM 0 0 0 0 1022.0 1022.0 0.0
30/05:30am 5.6 4.6 5.5 99 0.0 CALM 0 0 0 0 1022.1 1022.1 0.0
30/05:08am 5.9 4.9 5.8 99 0.0 CALM 0 0 0 0 1021.8 1021.8 0.0
30/05:00am 5.8 4.1 5.7 99 0.0 S 4 7 2 4 1021.7 1021.7 0.0
30/04:30am 5.8 3.7 5.7 99 0.0 S 6 7 3 4 1021.7 1021.7 0.0
30/04:20am 6.1 5.2 6.0 99 0.0 CALM 0 0 0 0 1021.9 1021.9 0.0
30/04:09am 6.3 5.4 6.2 99 0.0 CALM 0 0 0 0 1022.1 1022.1 0.0
30/04:00am 6.3 5.4 6.2 99 0.0 CALM 0 0 0 0 1022.0 1022.0 0.0
30/03:51am 6.4 5.6 6.3 99 0.0 CALM 0 0 0 0 1021.8 1021.8 0.0
30/03:30am 6.2 5.3 6.1 99 0.0 CALM 0 0 0 0 1022.1 1022.1 0.0
30/03:15am 6.3 5.4 6.2 99 0.0 CALM 0 0 0 0 1022.1 1022.1 0.0
30/03:00am 6.2 5.3 6.1 99 0.0 CALM 0 0 0 0 1022.2 1022.2 0.0
30/02:30am 6.5 5.7 6.4 99 0.0 CALM 0 0 0 0 1022.4 1022.4 0.0
30/02:00am 7.3 6.7 7.2 99 0.0 CALM 0 0 0 0 1022.7 1022.7 0.0
30/01:30am 7.0 6.3 6.9 99 0.0 CALM 0 0 0 0 1022.6 1022.6 0.0
30/01:18am 6.4 5.6 6.3 99 0.0 CALM 0 0 0 0 1022.6 1022.6 0.0
30/01:00am 6.6 5.8 6.3 98 0.1 CALM 0 0 0 0 1022.3 1022.3 0.0
30/12:44am 6.6 5.7 6.2 97 0.2 CALM 0 0 0 0 1022.4 1022.4 0.0
30/12:30am 7.5 6.8 7.1 97 0.2 CALM 0 0 0 0 1022.5 1022.5 0.0
30/12:00am 7.5 5.7 7.1 97 0.2 SE 6 7 3 4 1022.5 1022.5 0.0
 
Date/Time
EST
Temp
°C
App
Temp
°C
Dew
Point
Rel
Hum
%
Delta-T
°C
Wind Press
QNH
hPa
Press
MSL
hPa
Rain
since 9 am
mm
Dir
 
Spd
km/h
Gust
km/h
Spd
kts
Gust
kts
29/11:30pm 7.9 5.6 7.6 98 0.1 SE 9 11 5 6 1022.8 1022.8 0.0
29/11:00pm 7.6 5.7 6.9 95 0.3 W 6 9 3 5 1022.7 1022.7 0.0
29/10:30pm 8.2 7.6 7.4 95 0.4 CALM 0 0 0 0 1023.1 1023.1 0.0
29/10:00pm 8.3 7.7 7.4 94 0.4 CALM 0 6 0 3 1023.0 1023.0 0.0
29/09:30pm 8.6 6.9 7.4 92 0.6 NE 6 7 3 4 1022.9 1022.9 0.0
29/09:00pm 9.4 8.1 7.7 89 0.8 S 4 7 2 4 1022.9 1022.9 0.0
29/08:30pm 10.2 9.1 8.6 90 0.8 NE 4 7 2 4 1022.9 1022.9 0.0
29/08:00pm 11.3 10.1 8.2 81 1.5 SSE 4 9 2 5 1022.6 1022.6 0.0
29/07:30pm 12.1 10.1 8.8 80 1.7 SE 9 11 5 6 1022.5 1022.5 0.0
29/07:00pm 10.9 9.1 8.0 82 1.4 WSW 7 9 4 5 1022.4 1022.4 0.0
29/06:30pm 12.8 12.5 8.5 75 2.1 CALM 0 0 0 0 1022.0 1022.0 0.0
29/06:00pm 14.2 14.0 9.0 71 2.6 CALM 0 0 0 0 1021.7 1021.7 0.0
29/05:30pm 14.9 13.2 8.4 65 3.3 NNE 7 9 4 5 1021.5 1021.5 0.0
29/05:00pm 16.2 13.7 8.2 59 4.0 WNW 11 13 6 7 1020.9 1020.9 0.0
29/04:30pm 17.7 14.9 8.6 55 4.7 WNW 13 17 7 9 1020.8 1020.8 0.0
29/04:00pm 18.7 16.5 9.5 55 4.9 NW 11 15 6 8 1020.7 1020.7 0.0
29/03:30pm 19.8 17.9 10.5 55 5.0 NW 11 15 6 8 1020.5 1020.5 0.0
29/03:00pm 19.9 18.7 11.7 59 4.5 NW 9 13 5 7 1020.4 1020.4 0.0
29/02:30pm 19.1 18.0 10.6 58 4.6 WNW 7 13 4 7 1020.1 1020.1 0.0
29/02:00pm 19.0 17.0 10.3 57 4.7 W 11 17 6 9 1019.9 1019.9 0.0
29/01:30pm 18.6 18.4 13.0 70 3.2 W 6 9 3 5 1019.9 1019.9 0.0
29/01:00pm 18.0 17.8 13.5 75 2.5 NNW 7 9 4 5 1020.1 1020.1 0.0
29/12:30pm 17.8 17.5 13.3 75 2.5 NNW 7 9 4 5 1020.3 1020.3 0.0
29/12:00pm 18.2 17.8 12.4 69 3.2 W 6 9 3 5 1020.5 1020.5 0.0
29/11:30am 17.6 16.7 12.5 72 2.8 WSW 9 13 5 7 1020.9 1020.9 0.0
29/11:00am 17.6 14.6 12.1 70 3.0 W 19 24 10 13 1021.2 1021.2 0.0
29/10:30am 17.0 15.7 13.7 81 1.9 SW 13 24 7 13 1021.1 1021.1 0.0
29/10:00am 14.5 15.4 13.0 91 0.8 CALM 0 0 0 0 1021.0 1021.0 0.0
29/09:30am 14.2 15.2 13.2 94 0.6 CALM 0 0 0 0 1021.1 1021.1 0.0
29/09:00am 13.4 14.4 13.2 99 0.1 CALM 0 0 0 0 1021.1 1021.1 0.0
29/08:30am 12.9 13.4 12.7 99 0.1 ESE 2 6 1 3 1020.9 1020.9 0.0
29/08:00am 12.3 13.0 12.1 99 0.1 CALM 0 0 0 0 1020.8 1020.8 0.0
29/07:30am 12.0 12.6 11.8 99 0.1 CALM 0 0 0 0 1020.1 1020.1 0.0
29/07:00am 12.1 12.3 11.9 99 0.1 SW 2 6 1 3 1020.0 1020.0 0.0
29/06:30am 12.1 11.9 11.9 99 0.1 SW 4 7 2 4 1019.8 1019.8 0.0
29/06:00am 12.0 12.6 11.8 99 0.1 CALM 0 0 0 0 1019.2 1019.2 0.0
29/05:30am 12.1 11.4 11.9 99 0.1 SSE 7 11 4 6 1018.9 1018.9 0.0
29/05:00am 11.8 11.2 11.6 99 0.1 SSE 6 6 3 3 1018.7 1018.7 0.0
29/04:30am 11.6 12.0 11.4 99 0.1 CALM 0 0 0 0 1018.6 1018.6 0.0
29/04:00am 11.5 10.6 11.3 99 0.1 SSE 7 9 4 5 1018.3 1018.2 0.0
29/03:30am 11.2 10.8 11.0 99 0.1 SW 4 7 2 4 1018.2 1018.1 0.0
29/03:00am 11.1 11.4 10.9 99 0.1 CALM 0 0 0 0 1018.2 1018.1 0.0
29/02:30am 11.1 11.4 10.9 99 0.1 CALM 0 0 0 0 1018.5 1018.5 0.0
29/02:00am 11.3 11.7 11.1 99 0.1 CALM 0 0 0 0 1019.2 1019.2 0.0
29/01:30am 11.4 11.8 11.2 99 0.1 CALM 0 0 0 0 1019.3 1019.3 0.0
29/01:00am 11.2 11.2 11.0 99 0.1 SSW 2 7 1 4 1019.5 1019.5 0.0
29/12:30am 11.3 11.7 11.1 99 0.1 CALM 0 0 0 0 1019.6 1019.6 0.0
29/12:00am 11.0 11.3 10.8 99 0.1 CALM 0 7 0 4 1020.2 1020.2 0.0
 
Date/Time
EST
Temp
°C
App
Temp
°C
Dew
Point
Rel
Hum
%
Delta-T
°C
Wind Press
QNH
hPa
Press
MSL
hPa
Rain
since 9 am
mm
Dir
 
Spd
km/h
Gust
km/h
Spd
kts
Gust
kts
28/11:30pm 11.2 11.5 11.0 99 0.1 CALM 0 0 0 0 1020.2 1020.2 0.0
28/11:00pm 11.1 11.4 10.9 99 0.1 CALM 0 0 0 0 1020.3 1020.3 0.0
28/10:30pm 10.8 11.0 10.6 99 0.1 CALM 0 0 0 0 1020.3 1020.3 0.0
28/10:00pm 11.0 10.9 10.7 98 0.2 NNE 2 7 1 4 1020.6 1020.6 0.0
28/09:30pm 11.5 11.9 11.2 98 0.2 CALM 0 2 0 1 1020.7 1020.7 0.0
28/09:00pm 11.6 10.6 11.1 97 0.3 ESE 7 11 4 6 1020.5 1020.5 0.0
28/08:30pm 11.9 12.3 11.4 97 0.3 CALM 0 0 0 0 1020.7 1020.7 0.0
28/08:00pm 12.0 11.7 11.4 96 0.3 N 4 7 2 4 1020.6 1020.6 0.0
28/07:30pm 12.0 12.4 11.1 94 0.5 CALM 0 0 0 0 1020.9 1020.9 0.0
28/07:00pm 12.7 12.4 11.6 93 0.6 S 4 9 2 5 1020.5 1020.5 0.0
28/06:30pm 13.3 13.5 11.9 91 0.8 NNE 2 7 1 4 1020.6 1020.6 0.0
28/06:00pm 13.5 13.1 11.0 85 1.3 WSW 4 7 2 4 1020.6 1020.6 0.0
28/05:30pm 15.2 15.6 11.2 77 2.1 CALM 0 0 0 0 1020.4 1020.4 0.0
28/05:00pm 16.7 16.8 11.4 71 2.9 WNW 2 6 1 3 1020.5 1020.5 0.0
28/04:30pm 18.5 18.9 11.1 62 4.0 CALM 0 0 0 0 1020.2 1020.2 0.0
28/04:00pm 19.7 18.8 11.2 58 4.7 N 7 9 4 5 1020.2 1020.2 0.0
28/03:30pm 20.1 19.0 10.8 55 5.1 N 7 11 4 6 1020.0 1020.0 0.0
28/03:00pm 19.4 17.6 10.9 58 4.6 NNW 11 17 6 9 1020.3 1020.3 0.0
28/02:30pm 19.8 17.2 10.8 56 4.9 NNW 15 19 8 10 1020.3 1020.3 0.0
28/02:00pm 19.7 17.0 10.4 55 5.0 N 15 19 8 10 1020.2 1020.2 0.0
28/01:30pm 19.0 16.6 11.3 61 4.2 NNW 15 17 8 9 1020.4 1020.4 0.0
28/01:00pm 19.8 17.8 10.2 54 5.2 NNW 11 15 6 8 1020.6 1020.6 0.0
28/12:30pm 19.2 19.0 10.5 57 4.7 N 2 7 1 4 1020.9 1020.9 0.0
28/12:00pm 19.8 18.7 10.5 55 5.0 N 7 11 4 6 1021.3 1021.3 0.0
28/11:30am 18.7 18.6 9.5 55 4.9 CALM 0 4 0 2 1022.0 1022.0 0.0
28/11:00am 17.1 15.7 8.8 58 4.3 NW 6 9 3 5 1022.7 1022.7 0.0
28/10:30am 16.7 15.3 9.6 63 3.7 ESE 7 11 4 6 1023.2 1023.2 0.0
28/10:00am 14.7 13.4 10.1 74 2.4 SE 7 9 4 5 1023.6 1023.6 0.0
28/09:30am 12.9 12.8 9.5 80 1.7 CALM 0 0 0 0 1023.9 1023.9 0.0
28/09:00am 11.6 11.6 9.9 89 0.9 CALM 0 0 0 0 1023.9 1023.9 0.2
28/08:30am 8.7 8.4 8.6 99 0.0 CALM 0 0 0 0 1023.8 1023.8 0.2
28/08:00am 6.8 6.0 6.7 99 0.0 CALM 0 0 0 0 1023.8 1023.8 0.2
28/07:30am 5.5 4.5 5.4 99 0.0 CALM 0 0 0 0 1023.5 1023.5 0.2
28/07:28am 5.5 4.5 5.4 99 0.0 CALM 0 0 0 0 1023.4 1023.4 0.2
28/07:00am 5.3 4.2 5.2 99 0.0 CALM 0 0 0 0 1023.3 1023.3 0.2
28/06:30am 5.2 4.1 5.1 99 0.0 CALM 0 0 0 0 1023.4 1023.4 0.0
28/06:12am 5.2 4.1 5.1 99 0.0 CALM 0 0 0 0 1023.2 1023.2 0.0
28/06:08am 5.2 4.1 5.1 99 0.0 CALM 0 0 0 0 1023.0 1023.0 0.0
28/06:00am 5.5 4.5 5.4 99 0.0 CALM 0 0 0 0 1022.9 1022.9 0.0
28/05:32am 5.4 4.3 5.3 99 0.0 CALM 0 0 0 0 1022.6 1022.6 0.0
28/05:30am 5.8 4.8 5.7 99 0.0 CALM 0 0 0 0 1022.5 1022.5 0.0
28/05:00am 5.8 4.8 5.7 99 0.0 CALM 0 0 0 0 1022.5 1022.5 0.0
28/04:30am 5.6 4.6 5.5 99 0.0 CALM 0 0 0 0 1022.5 1022.5 0.0
28/04:27am 5.5 4.5 5.4 99 0.0 CALM 0 0 0 0 1022.5 1022.5 0.0
28/04:02am 5.7 4.3 5.6 99 0.0 S 2 6 1 3 1022.5 1022.5 0.0
28/04:00am 5.6 4.2 5.5 99 0.0 S 2 6 1 3 1022.5 1022.5 0.0
28/03:30am 5.6 4.6 5.5 99 0.0 CALM 0 0 0 0 1022.6 1022.6 0.0
28/03:00am 4.8 3.2 4.7 99 0.0 S 2 6 1 3 1022.6 1022.6 0.0
28/02:50am 5.4 4.3 5.3 99 0.0 CALM 0 0 0 0 1022.6 1022.6 0.0
28/02:30am 5.5 4.5 5.4 99 0.0 CALM 0 0 0 0 1022.8 1022.8 0.0
28/02:08am 5.7 3.9 5.6 99 0.0 S 4 6 2 3 1022.8 1022.8 0.0
28/02:00am 5.7 3.6 5.6 99 0.0 SSE 6 7 3 4 1022.9 1022.9 0.0
28/01:30am 5.5 4.5 5.4 99 0.0 CALM 0 4 0 2 1023.1 1023.1 0.0
28/01:12am 6.1 4.0 6.0 99 0.0 S 6 7 3 4 1023.0 1023.0 0.0
28/01:04am 6.3 5.0 6.2 99 0.0 S 2 7 1 4 1023.1 1023.1 0.0
28/01:01am 6.6 5.8 6.5 99 0.0 CALM 0 0 0 0 1023.1 1023.1 0.0
28/01:00am 6.6 5.8 6.5 99 0.0 CALM 0 0 0 0 1023.1 1023.1 0.0
28/12:57am 6.5 5.7 6.4 99 0.0 CALM 0 0 0 0 1023.1 1023.1 0.0
28/12:30am 6.9 6.2 6.8 99 0.0 CALM 0 0 0 0 1023.2 1023.2 0.0
28/12:28am 6.9 6.2 6.8 99 0.0 CALM 0 0 0 0 1023.2 1023.2 0.0
28/12:27am 6.9 6.2 6.8 99 0.0 CALM 0 0 0 0 1023.2 1023.2 0.0
28/12:10am 6.6 5.8 6.5 99 0.0 CALM 0 0 0 0 1023.3 1023.3 0.0
28/12:00am 7.3 6.7 7.2 99 0.0 CALM 0 0 0 0 1023.2 1023.2 0.0
 
Date/Time
EST
Temp
°C
App
Temp
°C
Dew
Point
Rel
Hum
%
Delta-T
°C
Wind Press
QNH
hPa
Press
MSL
hPa
Rain
since 9 am
mm
Dir
 
Spd
km/h
Gust
km/h
Spd
kts
Gust
kts
27/11:54pm 7.5 6.9 7.4 99 0.0 CALM 0 0 0 0 1023.2 1023.2 0.0
27/11:44pm 7.2 6.5 7.1 99 0.0 CALM 0 0 0 0 1023.2 1023.2 0.0
27/11:31pm 7.3 6.7 7.2 99 0.0 CALM 0 0 0 0 1023.2 1023.2 0.0
27/11:30pm 7.0 6.3 6.9 99 0.0 CALM 0 0 0 0 1023.2 1023.2 0.0
27/11:09pm 8.2 7.8 8.1 99 0.0 CALM 0 0 0 0 1023.2 1023.2 0.0
27/11:00pm 8.1 7.6 8.0 99 0.0 CALM 0 2 0 1 1023.3 1023.3 0.0
27/10:30pm 7.5 6.1 7.4 99 0.0 NNW 4 6 2 3 1023.1 1023.1 0.0
27/10:00pm 7.8 7.2 7.4 97 0.2 CALM 0 6 0 3 1023.1 1023.1 0.0
27/09:30pm 8.6 7.1 8.5 99 0.0 ENE 6 9 3 5 1023.3 1023.3 0.0
27/09:00pm 8.1 5.8 7.5 96 0.3 SSW 9 11 5 6 1023.3 1023.3 0.0
27/08:30pm 9.4 9.1 8.8 96 0.3 CALM 0 6 0 3 1023.3 1023.3 0.0
27/08:00pm 9.2 7.6 8.0 92 0.6 SW 6 7 3 4 1023.1 1023.1 0.0
27/07:30pm 9.6 8.6 7.5 87 1.0 WSW 2 9 1 5 1023.0 1023.0 0.0
27/07:00pm 10.3 9.8 7.7 84 1.2 CALM 0 2 0 1 1022.7 1022.7 0.0
27/06:30pm 12.0 11.2 8.3 78 1.8 WSW 2 7 1 4 1022.3 1022.3 0.0
27/06:00pm 12.7 11.1 8.0 73 2.3 WNW 6 7 3 4 1022.0 1022.0 0.0
27/05:30pm 13.9 12.2 8.3 69 2.8 NNE 7 11 4 6 1021.8 1021.8 0.0
27/05:00pm 14.8 12.4 8.7 67 3.1 NNW 11 13 6 7 1021.6 1021.6 0.0
27/04:30pm 16.7 15.1 8.7 59 4.1 N 7 9 4 5 1021.5 1021.5 0.0
27/04:00pm 18.5 15.7 8.7 53 5.1 NNW 13 15 7 8 1021.5 1021.5 0.0
27/03:30pm 19.0 17.1 9.2 53 5.2 NNW 9 11 5 6 1021.5 1021.5 0.0
27/03:00pm 18.8 16.0 8.5 51 5.3 NNW 13 17 7 9 1021.6 1021.6 0.0
27/02:30pm 19.5 16.8 8.8 50 5.6 NNW 13 17 7 9 1021.7 1021.7 0.0
27/02:00pm 19.3 16.8 8.3 49 5.7 NW 11 15 6 8 1021.7 1021.7 0.0
27/01:30pm 19.4 17.4 7.2 45 6.2 NNW 7 17 4 9 1022.0 1022.0 0.0
27/01:00pm 18.8 16.8 6.9 46 6.0 N 7 11 4 6 1022.3 1022.3 0.0
27/12:30pm 18.3 16.4 6.8 47 5.8 NNW 6 13 3 7 1022.8 1022.8 0.0
27/12:00pm 17.4 15.7 7.5 52 5.0 N 6 9 3 5 1023.3 1023.3 0.0
27/11:30am 16.0 14.6 8.7 62 3.7 NNE 6 9 3 5 1024.0 1024.0 0.0
27/11:00am 14.8 13.0 8.1 64 3.3 N 7 9 4 5 1024.6 1024.6 0.0
27/10:30am 13.7 13.1 7.5 66 3.1 CALM 0 0 0 0 1025.1 1025.1 0.0
27/10:00am 13.2 12.0 8.1 71 2.5 SSW 4 7 2 4 1025.4 1025.4 0.0
27/09:30am 11.8 10.2 7.9 77 1.9 S 6 9 3 5 1025.5 1025.5 0.0
27/09:00am 10.2 9.8 9.6 96 0.3 SE 2 7 1 4 1025.5 1025.5 0.0
27/08:30am 8.8 7.4 8.7 99 0.0 SE 6 9 3 5 1025.5 1025.5 0.0
27/08:18am 7.9 6.3 7.8 99 0.0 SSE 6 7 3 4 1025.7 1025.7 0.0
27/08:00am 5.8 4.8 5.7 99 0.0 CALM 0 0 0 0 1025.8 1025.8 0.0
27/07:33am 5.7 4.7 5.6 99 0.0 CALM 0 0 0 0 1025.3 1025.3 0.0
27/07:30am 5.7 4.7 5.6 99 0.0 CALM 0 0 0 0 1025.2 1025.2 0.0
27/07:00am 4.8 3.6 4.7 99 0.0 CALM 0 0 0 0 1024.7 1024.7 0.0
27/06:30am 5.4 4.3 5.3 99 0.0 CALM 0 0 0 0 1024.5 1024.5 0.0

Other Formats:

Comma delimited format used in spreadsheet applications
http://www.bom.gov.au/fwo/IDN60801/IDN60801.94755.axf

JavaScript Object Notation format (JSON) in row-major order
http://www.bom.gov.au/fwo/IDN60801/IDN60801.94755.json